sensor_id;sensor_type;location;lat;lon;timestamp;P1;durP1;ratioP1;P2;durP2;ratioP2
8978;SDS011;4524;51.364;5.448;2023-03-05T10:48:37;5.28;;;4.18;;
8978;SDS011;4524;51.364;5.448;2023-03-05T10:51:11;6.93;;;4.18;;
8978;SDS011;4524;51.364;5.448;2023-03-05T10:53:44;6.82;;;4.55;;
8978;SDS011;4524;51.364;5.448;2023-03-05T10:56:18;7.78;;;4.00;;
8978;SDS011;4524;51.364;5.448;2023-03-05T10:58:48;6.20;;;4.38;;
8978;SDS011;4524;51.364;5.448;2023-03-05T11:01:19;6.43;;;3.80;;
8978;SDS011;4524;51.364;5.448;2023-03-05T11:03:54;5.80;;;3.90;;
8978;SDS011;4524;51.364;5.448;2023-03-05T11:06:34;5.03;;;2.90;;
8978;SDS011;4524;51.364;5.448;2023-03-05T11:12:02;5.65;;;2.78;;
8978;SDS011;4524;51.364;5.448;2023-03-05T11:14:43;3.58;;;2.55;;
8978;SDS011;4524;51.364;5.448;2023-03-05T11:17:29;5.05;;;2.67;;
8978;SDS011;4524;51.364;5.448;2023-03-05T11:23:01;4.93;;;2.50;;
8978;SDS011;4524;51.364;5.448;2023-03-05T11:25:31;4.22;;;2.50;;
8978;SDS011;4524;51.364;5.448;2023-03-05T11:28:00;4.55;;;2.83;;
8978;SDS011;4524;51.364;5.448;2023-03-05T11:30:30;3.28;;;2.50;;
8978;SDS011;4524;51.364;5.448;2023-03-05T11:33:06;4.20;;;2.60;;
8978;SDS011;4524;51.364;5.448;2023-03-05T11:35:38;3.42;;;2.55;;
8978;SDS011;4524;51.364;5.448;2023-03-05T11:38:14;4.05;;;2.30;;
8978;SDS011;4524;51.364;5.448;2023-03-05T11:40:43;5.00;;;2.40;;
8978;SDS011;4524;51.364;5.448;2023-03-05T11:43:14;4.03;;;2.33;;
8978;SDS011;4524;51.364;5.448;2023-03-05T11:45:44;3.10;;;2.28;;
8978;SDS011;4524;51.364;5.448;2023-03-05T11:48:17;3.85;;;2.00;;
8978;SDS011;4524;51.364;5.448;2023-03-05T11:50:50;3.55;;;2.00;;
8978;SDS011;4524;51.364;5.448;2023-03-05T11:53:21;3.30;;;2.20;;
8978;SDS011;4524;51.364;5.448;2023-03-05T11:55:53;3.83;;;1.90;;
8978;SDS011;4524;51.364;5.448;2023-03-05T11:58:30;3.17;;;1.77;;
8978;SDS011;4524;51.364;5.448;2023-03-05T12:01:02;2.45;;;1.80;;
8978;SDS011;4524;51.364;5.448;2023-03-05T12:03:34;2.95;;;1.80;;
8978;SDS011;4524;51.364;5.448;2023-03-05T12:06:07;3.08;;;1.80;;
8978;SDS011;4524;51.364;5.448;2023-03-05T12:08:43;3.20;;;1.90;;
8978;SDS011;4524;51.364;5.448;2023-03-05T12:11:14;3.22;;;1.60;;
8978;SDS011;4524;51.364;5.448;2023-03-05T12:13:45;5.13;;;1.77;;
8978;SDS011;4524;51.364;5.448;2023-03-05T12:16:21;4.05;;;1.70;;
8978;SDS011;4524;51.364;5.448;2023-03-05T12:18:58;3.28;;;1.70;;
8978;SDS011;4524;51.364;5.448;2023-03-05T12:21:37;1.60;;;1.02;;
8978;SDS011;4524;51.364;5.448;2023-03-05T12:27:05;2.50;;;1.42;;
8978;SDS011;4524;51.364;5.448;2023-03-05T12:29:43;2.90;;;1.60;;
8978;SDS011;4524;51.364;5.448;2023-03-05T12:35:26;2.87;;;1.60;;
8978;SDS011;4524;51.364;5.448;2023-03-05T12:38:03;3.05;;;1.75;;
8978;SDS011;4524;51.364;5.448;2023-03-05T12:40:52;3.70;;;1.63;;
8978;SDS011;4524;51.364;5.448;2023-03-05T12:49:48;4.03;;;2.00;;
8978;SDS011;4524;51.364;5.448;2023-03-05T12:52:21;5.35;;;3.92;;
8978;SDS011;4524;51.364;5.448;2023-03-05T12:55:07;4.13;;;3.63;;
8978;SDS011;4524;51.364;5.448;2023-03-05T12:57:43;4.53;;;3.60;;
8978;SDS011;4524;51.364;5.448;2023-03-05T13:00:15;3.83;;;3.47;;
8978;SDS011;4524;51.364;5.448;2023-03-05T13:02:49;3.47;;;3.17;;
8978;SDS011;4524;51.364;5.448;2023-03-05T13:05:25;3.42;;;3.05;;
8978;SDS011;4524;51.364;5.448;2023-03-05T13:08:08;4.40;;;3.70;;
8978;SDS011;4524;51.364;5.448;2023-03-05T13:10:44;4.93;;;3.45;;
8978;SDS011;4524;51.364;5.448;2023-03-05T13:13:18;4.68;;;4.18;;
8978;SDS011;4524;51.364;5.448;2023-03-05T13:15:47;4.40;;;4.00;;
8978;SDS011;4524;51.364;5.448;2023-03-05T13:18:18;4.15;;;3.75;;
8978;SDS011;4524;51.364;5.448;2023-03-05T13:20:47;4.10;;;3.70;;
8978;SDS011;4524;51.364;5.448;2023-03-05T13:23:27;4.20;;;3.80;;
8978;SDS011;4524;51.364;5.448;2023-03-05T13:25:58;4.38;;;3.97;;
8978;SDS011;4524;51.364;5.448;2023-03-05T13:28:28;4.75;;;4.00;;
8978;SDS011;4524;51.364;5.448;2023-03-05T13:30:58;4.47;;;3.90;;
8978;SDS011;4524;51.364;5.448;2023-03-05T13:33:29;4.32;;;3.85;;
8978;SDS011;4524;51.364;5.448;2023-03-05T13:35:58;4.03;;;2.70;;
8978;SDS011;4524;51.364;5.448;2023-03-05T13:38:28;3.70;;;3.20;;
8978;SDS011;4524;51.364;5.448;2023-03-05T13:41:05;4.05;;;3.38;;
8978;SDS011;4524;51.364;5.448;2023-03-05T13:43:45;3.88;;;3.50;;
8978;SDS011;4524;51.364;5.448;2023-03-05T13:46:22;4.40;;;3.75;;
8978;SDS011;4524;51.364;5.448;2023-03-05T13:48:51;4.05;;;3.65;;
8978;SDS011;4524;51.364;5.448;2023-03-05T13:51:19;3.50;;;2.90;;
8978;SDS011;4524;51.364;5.448;2023-03-05T13:53:47;3.55;;;3.10;;
8978;SDS011;4524;51.364;5.448;2023-03-05T13:56:19;4.10;;;3.65;;
8978;SDS011;4524;51.364;5.448;2023-03-05T13:58:49;4.30;;;3.40;;
8978;SDS011;4524;51.364;5.448;2023-03-05T14:01:23;3.83;;;3.47;;
8978;SDS011;4524;51.364;5.448;2023-03-05T14:03:54;4.47;;;3.90;;
8978;SDS011;4524;51.364;5.448;2023-03-05T14:06:26;4.00;;;3.30;;
8978;SDS011;4524;51.364;5.448;2023-03-05T14:09:00;3.67;;;3.38;;
8978;SDS011;4524;51.364;5.448;2023-03-05T14:11:33;4.28;;;3.30;;
8978;SDS011;4524;51.364;5.448;2023-03-05T14:14:06;4.53;;;3.00;;
8978;SDS011;4524;51.364;5.448;2023-03-05T14:16:41;4.32;;;2.95;;
8978;SDS011;4524;51.364;5.448;2023-03-05T14:19:32;4.78;;;3.20;;
8978;SDS011;4524;51.364;5.448;2023-03-05T14:22:04;3.72;;;3.38;;
8978;SDS011;4524;51.364;5.448;2023-03-05T14:24:32;4.90;;;2.85;;
8978;SDS011;4524;51.364;5.448;2023-03-05T14:27:03;6.10;;;3.08;;
8978;SDS011;4524;51.364;5.448;2023-03-05T14:29:42;3.75;;;2.80;;
8978;SDS011;4524;51.364;5.448;2023-03-05T14:32:17;3.60;;;3.20;;
8978;SDS011;4524;51.364;5.448;2023-03-05T14:34:58;4.68;;;3.20;;
8978;SDS011;4524;51.364;5.448;2023-03-05T14:37:30;3.00;;;2.70;;
8978;SDS011;4524;51.364;5.448;2023-03-05T14:40:02;3.50;;;2.60;;
8978;SDS011;4524;51.364;5.448;2023-03-05T14:42:32;4.40;;;2.92;;
8978;SDS011;4524;51.364;5.448;2023-03-05T14:45:11;3.85;;;2.70;;
8978;SDS011;4524;51.364;5.448;2023-03-05T14:47:40;3.80;;;2.72;;
8978;SDS011;4524;51.364;5.448;2023-03-05T14:50:13;3.35;;;2.72;;
8978;SDS011;4524;51.364;5.448;2023-03-05T14:52:42;4.27;;;2.60;;
8978;SDS011;4524;51.364;5.448;2023-03-05T14:55:14;2.83;;;2.30;;
8978;SDS011;4524;51.364;5.448;2023-03-05T14:57:42;3.42;;;2.75;;
8978;SDS011;4524;51.364;5.448;2023-03-05T15:00:14;3.53;;;3.10;;
8978;SDS011;4524;51.364;5.448;2023-03-05T15:02:42;3.90;;;3.22;;
8978;SDS011;4524;51.364;5.448;2023-03-05T15:05:12;4.78;;;3.80;;
8978;SDS011;4524;51.364;5.448;2023-03-05T15:07:40;5.63;;;4.50;;
8978;SDS011;4524;51.364;5.448;2023-03-05T15:10:10;5.38;;;4.88;;
8978;SDS011;4524;51.364;5.448;2023-03-05T15:12:40;5.80;;;5.20;;
8978;SDS011;4524;51.364;5.448;2023-03-05T15:15:10;4.40;;;3.47;;
8978;SDS011;4524;51.364;5.448;2023-03-05T15:17:40;5.78;;;4.68;;
8978;SDS011;4524;51.364;5.448;2023-03-05T15:20:13;5.55;;;4.70;;
8978;SDS011;4524;51.364;5.448;2023-03-05T15:22:43;4.05;;;3.20;;
8978;SDS011;4524;51.364;5.448;2023-03-05T15:25:11;5.15;;;3.80;;
8978;SDS011;4524;51.364;5.448;2023-03-05T15:27:39;4.30;;;3.28;;
8978;SDS011;4524;51.364;5.448;2023-03-05T15:30:07;4.15;;;3.40;;
8978;SDS011;4524;51.364;5.448;2023-03-05T15:32:40;3.30;;;3.00;;
8978;SDS011;4524;51.364;5.448;2023-03-05T15:35:08;3.67;;;3.37;;
8978;SDS011;4524;51.364;5.448;2023-03-05T15:37:37;4.55;;;3.42;;
8978;SDS011;4524;51.364;5.448;2023-03-05T15:40:06;5.70;;;3.22;;
8978;SDS011;4524;51.364;5.448;2023-03-05T15:42:35;4.00;;;2.90;;
8978;SDS011;4524;51.364;5.448;2023-03-05T15:45:03;4.85;;;3.65;;
8978;SDS011;4524;51.364;5.448;2023-03-05T15:47:32;3.93;;;3.40;;
8978;SDS011;4524;51.364;5.448;2023-03-05T15:50:00;5.07;;;3.70;;
8978;SDS011;4524;51.364;5.448;2023-03-05T15:52:28;4.50;;;4.00;;
8978;SDS011;4524;51.364;5.448;2023-03-05T15:54:57;5.82;;;4.10;;
8978;SDS011;4524;51.364;5.448;2023-03-05T15:57:26;4.40;;;4.00;;
8978;SDS011;4524;51.364;5.448;2023-03-05T15:59:54;4.95;;;3.90;;
8978;SDS011;4524;51.364;5.448;2023-03-05T16:02:22;4.38;;;4.00;;
8978;SDS011;4524;51.364;5.448;2023-03-05T16:04:50;4.73;;;4.20;;
8978;SDS011;4524;51.364;5.448;2023-03-05T16:07:18;5.72;;;4.22;;
8978;SDS011;4524;51.364;5.448;2023-03-05T16:09:49;4.65;;;4.25;;
8978;SDS011;4524;51.364;5.448;2023-03-05T16:12:20;5.55;;;3.90;;
8978;SDS011;4524;51.364;5.448;2023-03-05T16:14:51;4.32;;;3.85;;
8978;SDS011;4524;51.364;5.448;2023-03-05T16:17:19;4.65;;;3.80;;
8978;SDS011;4524;51.364;5.448;2023-03-05T16:19:50;5.32;;;3.63;;
8978;SDS011;4524;51.364;5.448;2023-03-05T16:22:21;4.07;;;2.92;;
8978;SDS011;4524;51.364;5.448;2023-03-05T16:24:49;3.35;;;3.05;;
8978;SDS011;4524;51.364;5.448;2023-03-05T16:27:19;3.83;;;3.22;;
8978;SDS011;4524;51.364;5.448;2023-03-05T16:29:47;4.47;;;3.40;;
8978;SDS011;4524;51.364;5.448;2023-03-05T16:32:16;4.03;;;3.50;;
8978;SDS011;4524;51.364;5.448;2023-03-05T16:34:44;4.93;;;3.50;;
8978;SDS011;4524;51.364;5.448;2023-03-05T16:37:13;4.90;;;2.97;;
8978;SDS011;4524;51.364;5.448;2023-03-05T16:39:45;3.47;;;3.17;;
8978;SDS011;4524;51.364;5.448;2023-03-05T16:42:14;3.47;;;3.00;;
8978;SDS011;4524;51.364;5.448;2023-03-05T16:44:44;3.53;;;3.22;;
8978;SDS011;4524;51.364;5.448;2023-03-05T16:47:12;4.70;;;3.63;;
8978;SDS011;4524;51.364;5.448;2023-03-05T16:49:40;4.57;;;3.20;;
8978;SDS011;4524;51.364;5.448;2023-03-05T16:52:08;3.97;;;3.53;;
8978;SDS011;4524;51.364;5.448;2023-03-05T16:54:44;3.43;;;3.13;;
8978;SDS011;4524;51.364;5.448;2023-03-05T16:57:12;4.78;;;3.40;;
8978;SDS011;4524;51.364;5.448;2023-03-05T16:59:40;4.13;;;2.80;;
8978;SDS011;4524;51.364;5.448;2023-03-05T17:02:10;3.45;;;2.88;;
8978;SDS011;4524;51.364;5.448;2023-03-05T17:04:40;3.90;;;2.70;;
8978;SDS011;4524;51.364;5.448;2023-03-05T17:07:08;2.95;;;2.65;;
8978;SDS011;4524;51.364;5.448;2023-03-05T17:09:37;5.03;;;3.42;;
8978;SDS011;4524;51.364;5.448;2023-03-05T17:12:05;4.20;;;3.57;;
8978;SDS011;4524;51.364;5.448;2023-03-05T17:14:34;4.97;;;3.40;;
8978;SDS011;4524;51.364;5.448;2023-03-05T17:17:02;4.50;;;3.80;;
8978;SDS011;4524;51.364;5.448;2023-03-05T17:19:31;4.15;;;3.20;;
8978;SDS011;4524;51.364;5.448;2023-03-05T17:21:59;3.60;;;2.70;;
8978;SDS011;4524;51.364;5.448;2023-03-05T17:24:27;3.45;;;2.30;;
8978;SDS011;4524;51.364;5.448;2023-03-05T17:26:58;4.60;;;2.45;;
8978;SDS011;4524;51.364;5.448;2023-03-05T17:29:26;3.03;;;2.00;;
8978;SDS011;4524;51.364;5.448;2023-03-05T17:31:55;2.90;;;1.70;;
8978;SDS011;4524;51.364;5.448;2023-03-05T17:34:23;1.88;;;1.67;;
8978;SDS011;4524;51.364;5.448;2023-03-05T17:37:03;3.17;;;1.88;;
8978;SDS011;4524;51.364;5.448;2023-03-05T17:39:31;3.13;;;1.95;;
8978;SDS011;4524;51.364;5.448;2023-03-05T17:41:59;3.40;;;2.00;;
8978;SDS011;4524;51.364;5.448;2023-03-05T17:44:27;2.13;;;1.90;;
8978;SDS011;4524;51.364;5.448;2023-03-05T17:46:55;2.87;;;2.00;;
8978;SDS011;4524;51.364;5.448;2023-03-05T17:49:23;2.25;;;1.90;;
8978;SDS011;4524;51.364;5.448;2023-03-05T17:51:52;1.88;;;1.70;;
8978;SDS011;4524;51.364;5.448;2023-03-05T17:54:21;2.45;;;1.90;;
8978;SDS011;4524;51.364;5.448;2023-03-05T17:56:52;2.30;;;1.80;;
8978;SDS011;4524;51.364;5.448;2023-03-05T17:59:20;2.10;;;1.70;;
8978;SDS011;4524;51.364;5.448;2023-03-05T18:01:48;5.28;;;1.90;;
8978;SDS011;4524;51.364;5.448;2023-03-05T18:04:16;2.58;;;1.65;;
8978;SDS011;4524;51.364;5.448;2023-03-05T18:06:44;3.33;;;1.70;;
8978;SDS011;4524;51.364;5.448;2023-03-05T18:09:12;2.90;;;1.75;;
8978;SDS011;4524;51.364;5.448;2023-03-05T18:11:42;2.15;;;1.73;;
8978;SDS011;4524;51.364;5.448;2023-03-05T18:14:10;3.08;;;1.63;;
8978;SDS011;4524;51.364;5.448;2023-03-05T18:16:39;3.23;;;2.00;;
8978;SDS011;4524;51.364;5.448;2023-03-05T18:19:07;3.30;;;1.85;;
8978;SDS011;4524;51.364;5.448;2023-03-05T18:21:36;3.65;;;1.83;;
8978;SDS011;4524;51.364;5.448;2023-03-05T18:24:06;3.17;;;1.77;;
8978;SDS011;4524;51.364;5.448;2023-03-05T18:26:35;2.63;;;1.70;;
8978;SDS011;4524;51.364;5.448;2023-03-05T18:29:04;3.15;;;1.80;;
8978;SDS011;4524;51.364;5.448;2023-03-05T18:31:32;3.47;;;1.90;;
8978;SDS011;4524;51.364;5.448;2023-03-05T18:34:00;3.22;;;1.98;;
8978;SDS011;4524;51.364;5.448;2023-03-05T18:36:28;2.42;;;1.90;;
8978;SDS011;4524;51.364;5.448;2023-03-05T18:38:56;2.47;;;2.08;;
8978;SDS011;4524;51.364;5.448;2023-03-05T18:41:24;2.92;;;2.38;;
8978;SDS011;4524;51.364;5.448;2023-03-05T18:43:53;4.37;;;2.77;;
8978;SDS011;4524;51.364;5.448;2023-03-05T18:46:23;3.95;;;3.05;;
8978;SDS011;4524;51.364;5.448;2023-03-05T18:48:51;6.53;;;3.35;;
8978;SDS011;4524;51.364;5.448;2023-03-05T18:51:19;4.80;;;3.13;;
8978;SDS011;4524;51.364;5.448;2023-03-05T18:53:47;4.72;;;3.15;;
8978;SDS011;4524;51.364;5.448;2023-03-05T18:56:17;5.10;;;3.60;;
8978;SDS011;4524;51.364;5.448;2023-03-05T18:58:45;5.57;;;3.75;;
8978;SDS011;4524;51.364;5.448;2023-03-05T19:01:13;6.23;;;3.10;;
8978;SDS011;4524;51.364;5.448;2023-03-05T19:03:44;5.57;;;3.20;;
8978;SDS011;4524;51.364;5.448;2023-03-05T19:06:12;4.60;;;3.63;;
8978;SDS011;4524;51.364;5.448;2023-03-05T19:09:00;5.27;;;3.60;;
8978;SDS011;4524;51.364;5.448;2023-03-05T19:11:33;4.00;;;3.27;;
8978;SDS011;4524;51.364;5.448;2023-03-05T19:14:01;4.73;;;3.27;;
8978;SDS011;4524;51.364;5.448;2023-03-05T19:16:29;5.00;;;3.20;;
8978;SDS011;4524;51.364;5.448;2023-03-05T19:19:05;5.73;;;3.30;;
8978;SDS011;4524;51.364;5.448;2023-03-05T19:21:40;5.63;;;3.80;;
8978;SDS011;4524;51.364;5.448;2023-03-05T19:24:09;4.73;;;3.23;;
8978;SDS011;4524;51.364;5.448;2023-03-05T19:26:37;6.05;;;4.00;;
8978;SDS011;4524;51.364;5.448;2023-03-05T19:29:06;4.60;;;4.07;;
8978;SDS011;4524;51.364;5.448;2023-03-05T19:31:35;4.90;;;3.73;;
8978;SDS011;4524;51.364;5.448;2023-03-05T19:34:05;5.72;;;4.40;;
8978;SDS011;4524;51.364;5.448;2023-03-05T19:36:33;6.43;;;4.43;;
8978;SDS011;4524;51.364;5.448;2023-03-05T19:39:02;6.67;;;4.40;;
8978;SDS011;4524;51.364;5.448;2023-03-05T19:41:33;7.53;;;4.33;;
8978;SDS011;4524;51.364;5.448;2023-03-05T19:44:02;5.50;;;3.93;;
8978;SDS011;4524;51.364;5.448;2023-03-05T19:46:30;6.13;;;4.07;;
8978;SDS011;4524;51.364;5.448;2023-03-05T19:48:58;7.27;;;4.73;;
8978;SDS011;4524;51.364;5.448;2023-03-05T19:51:28;5.97;;;4.53;;
8978;SDS011;4524;51.364;5.448;2023-03-05T19:53:56;7.73;;;4.57;;
8978;SDS011;4524;51.364;5.448;2023-03-05T19:56:23;5.07;;;4.47;;
8978;SDS011;4524;51.364;5.448;2023-03-05T19:58:51;5.87;;;4.07;;
8978;SDS011;4524;51.364;5.448;2023-03-05T20:01:20;4.80;;;4.10;;
8978;SDS011;4524;51.364;5.448;2023-03-05T20:03:52;5.97;;;4.60;;
8978;SDS011;4524;51.364;5.448;2023-03-05T20:06:21;8.43;;;4.50;;
8978;SDS011;4524;51.364;5.448;2023-03-05T20:08:51;6.10;;;4.40;;
8978;SDS011;4524;51.364;5.448;2023-03-05T20:11:19;5.40;;;4.50;;
8978;SDS011;4524;51.364;5.448;2023-03-05T20:13:48;6.07;;;5.18;;
8978;SDS011;4524;51.364;5.448;2023-03-05T20:16:17;6.10;;;4.83;;
8978;SDS011;4524;51.364;5.448;2023-03-05T20:18:46;10.17;;;5.27;;
8978;SDS011;4524;51.364;5.448;2023-03-05T20:21:18;6.63;;;5.47;;
8978;SDS011;4524;51.364;5.448;2023-03-05T20:23:48;9.57;;;6.30;;
8978;SDS011;4524;51.364;5.448;2023-03-05T20:26:18;9.13;;;5.73;;
8978;SDS011;4524;51.364;5.448;2023-03-05T20:28:47;8.83;;;6.40;;
8978;SDS011;4524;51.364;5.448;2023-03-05T20:31:16;11.45;;;8.05;;
8978;SDS011;4524;51.364;5.448;2023-03-05T20:33:45;9.83;;;6.10;;
8978;SDS011;4524;51.364;5.448;2023-03-05T20:36:14;8.48;;;6.93;;
8978;SDS011;4524;51.364;5.448;2023-03-05T20:38:42;6.28;;;5.68;;
8978;SDS011;4524;51.364;5.448;2023-03-05T20:41:11;7.22;;;6.13;;
8978;SDS011;4524;51.364;5.448;2023-03-05T20:43:43;9.00;;;6.05;;
8978;SDS011;4524;51.364;5.448;2023-03-05T20:46:13;6.97;;;5.60;;
8978;SDS011;4524;51.364;5.448;2023-03-05T20:48:42;6.43;;;5.55;;
8978;SDS011;4524;51.364;5.448;2023-03-05T20:51:11;8.00;;;5.93;;
8978;SDS011;4524;51.364;5.448;2023-03-05T20:53:40;6.40;;;5.80;;
8978;SDS011;4524;51.364;5.448;2023-03-05T20:56:08;7.03;;;5.63;;
8978;SDS011;4524;51.364;5.448;2023-03-05T20:58:36;6.75;;;5.55;;
8978;SDS011;4524;51.364;5.448;2023-03-05T21:01:06;7.28;;;5.97;;
8978;SDS011;4524;51.364;5.448;2023-03-05T21:03:34;6.78;;;5.28;;
8978;SDS011;4524;51.364;5.448;2023-03-05T21:06:04;7.38;;;5.90;;
8978;SDS011;4524;51.364;5.448;2023-03-05T21:08:32;7.72;;;5.65;;
8978;SDS011;4524;51.364;5.448;2023-03-05T21:11:03;7.32;;;6.00;;
8978;SDS011;4524;51.364;5.448;2023-03-05T21:13:32;7.37;;;4.80;;
8978;SDS011;4524;51.364;5.448;2023-03-05T21:18:33;9.07;;;5.30;;
8978;SDS011;4524;51.364;5.448;2023-03-05T21:21:02;7.40;;;4.77;;
8978;SDS011;4524;51.364;5.448;2023-03-05T21:23:29;5.27;;;4.60;;
8978;SDS011;4524;51.364;5.448;2023-03-05T21:25:58;5.63;;;4.80;;
8978;SDS011;4524;51.364;5.448;2023-03-05T21:28:26;7.82;;;5.70;;
8978;SDS011;4524;51.364;5.448;2023-03-05T21:30:54;8.10;;;4.70;;
8978;SDS011;4524;51.364;5.448;2023-03-05T21:33:24;7.90;;;4.83;;
8978;SDS011;4524;51.364;5.448;2023-03-05T21:35:54;6.90;;;5.77;;
8978;SDS011;4524;51.364;5.448;2023-03-05T21:38:23;7.03;;;5.93;;
8978;SDS011;4524;51.364;5.448;2023-03-05T21:40:56;9.77;;;5.50;;
8978;SDS011;4524;51.364;5.448;2023-03-05T21:43:25;6.32;;;5.68;;
8978;SDS011;4524;51.364;5.448;2023-03-05T21:45:54;8.05;;;5.65;;
8978;SDS011;4524;51.364;5.448;2023-03-05T21:48:24;7.60;;;5.83;;
8978;SDS011;4524;51.364;5.448;2023-03-05T21:50:52;8.97;;;4.97;;
8978;SDS011;4524;51.364;5.448;2023-03-05T21:53:21;7.10;;;5.70;;
8978;SDS011;4524;51.364;5.448;2023-03-05T21:55:49;8.13;;;5.87;;
8978;SDS011;4524;51.364;5.448;2023-03-05T21:58:29;8.68;;;6.38;;
8978;SDS011;4524;51.364;5.448;2023-03-05T22:00:58;8.85;;;6.30;;
8978;SDS011;4524;51.364;5.448;2023-03-05T22:03:28;8.68;;;6.50;;
8978;SDS011;4524;51.364;5.448;2023-03-05T22:05:56;7.80;;;6.57;;
8978;SDS011;4524;51.364;5.448;2023-03-05T22:08:24;8.10;;;5.90;;
8978;SDS011;4524;51.364;5.448;2023-03-05T22:10:54;6.10;;;5.10;;
8978;SDS011;4524;51.364;5.448;2023-03-05T22:13:22;6.50;;;4.93;;
8978;SDS011;4524;51.364;5.448;2023-03-05T22:15:51;5.80;;;4.87;;
8978;SDS011;4524;51.364;5.448;2023-03-05T22:18:21;7.30;;;6.30;;
8978;SDS011;4524;51.364;5.448;2023-03-05T22:20:52;9.90;;;7.15;;
8978;SDS011;4524;51.364;5.448;2023-03-05T22:23:21;7.10;;;6.07;;
8978;SDS011;4524;51.364;5.448;2023-03-05T22:25:54;8.00;;;6.57;;
8978;SDS011;4524;51.364;5.448;2023-03-05T22:28:22;8.10;;;7.30;;
8978;SDS011;4524;51.364;5.448;2023-03-05T22:30:50;8.90;;;7.00;;
8978;SDS011;4524;51.364;5.448;2023-03-05T22:33:18;8.03;;;6.83;;
8978;SDS011;4524;51.364;5.448;2023-03-05T22:35:48;12.20;;;7.50;;
8978;SDS011;4524;51.364;5.448;2023-03-05T22:38:18;8.90;;;7.33;;
8978;SDS011;4524;51.364;5.448;2023-03-05T22:40:47;10.77;;;7.87;;
8978;SDS011;4524;51.364;5.448;2023-03-05T22:43:16;11.17;;;8.13;;
8978;SDS011;4524;51.364;5.448;2023-03-05T22:45:44;11.57;;;8.33;;
8978;SDS011;4524;51.364;5.448;2023-03-05T22:48:13;10.40;;;7.73;;
8978;SDS011;4524;51.364;5.448;2023-03-05T22:50:41;11.90;;;8.83;;
8978;SDS011;4524;51.364;5.448;2023-03-05T22:53:10;10.17;;;8.20;;
8978;SDS011;4524;51.364;5.448;2023-03-05T22:55:40;13.07;;;11.50;;
8978;SDS011;4524;51.364;5.448;2023-03-05T22:58:08;15.40;;;10.77;;
8978;SDS011;4524;51.364;5.448;2023-03-05T23:00:36;15.83;;;12.07;;
8978;SDS011;4524;51.364;5.448;2023-03-05T23:03:04;12.63;;;10.40;;
8978;SDS011;4524;51.364;5.448;2023-03-05T23:05:32;13.23;;;10.27;;
8978;SDS011;4524;51.364;5.448;2023-03-05T23:08:00;14.70;;;11.73;;
8978;SDS011;4524;51.364;5.448;2023-03-05T23:10:28;14.23;;;10.97;;
8978;SDS011;4524;51.364;5.448;2023-03-05T23:12:58;15.03;;;10.83;;
8978;SDS011;4524;51.364;5.448;2023-03-05T23:15:27;16.87;;;11.20;;
8978;SDS011;4524;51.364;5.448;2023-03-05T23:17:57;13.63;;;11.30;;
8978;SDS011;4524;51.364;5.448;2023-03-05T23:20:27;13.30;;;11.37;;
8978;SDS011;4524;51.364;5.448;2023-03-05T23:22:56;16.37;;;12.27;;
8978;SDS011;4524;51.364;5.448;2023-03-05T23:25:25;16.17;;;12.13;;
8978;SDS011;4524;51.364;5.448;2023-03-05T23:27:55;17.60;;;12.13;;
8978;SDS011;4524;51.364;5.448;2023-03-05T23:30:25;16.33;;;12.00;;
8978;SDS011;4524;51.364;5.448;2023-03-05T23:32:55;14.57;;;11.93;;
8978;SDS011;4524;51.364;5.448;2023-03-05T23:35:26;17.43;;;11.90;;
8978;SDS011;4524;51.364;5.448;2023-03-05T23:37:56;17.07;;;12.60;;
8978;SDS011;4524;51.364;5.448;2023-03-05T23:40:27;15.83;;;12.43;;
8978;SDS011;4524;51.364;5.448;2023-03-05T23:42:57;15.93;;;11.57;;
8978;SDS011;4524;51.364;5.448;2023-03-05T23:45:26;15.67;;;11.90;;
8978;SDS011;4524;51.364;5.448;2023-03-05T23:47:55;15.93;;;12.03;;
8978;SDS011;4524;51.364;5.448;2023-03-05T23:50:24;16.23;;;12.13;;
8978;SDS011;4524;51.364;5.448;2023-03-05T23:52:53;16.20;;;11.87;;
8978;SDS011;4524;51.364;5.448;2023-03-05T23:55:22;16.67;;;11.87;;
8978;SDS011;4524;51.364;5.448;2023-03-05T23:57:51;16.77;;;12.00;;
